Time;durP1;ratioP1;P1;durP2;ratioP2;P2;SDS_P1;SDS_P2;PMS_P1;PMS_P2;Temp;Humidity;BMP_temperature;BMP_pressure;BME280_temperature;BME280_humidity;BME280_pressure;Samples;Min_cycle;Max_cycle;Signal;HPM_P1;HPM_P2
2022/11/04 00:02:10;;;;;;;0.80;0.73;;;14.50;76.60;;;;;;5051029;28;20462;-72
2022/11/04 00:04:40;;;;;;;1.10;0.90;;;14.50;76.70;;;;;;5067970;28;20840;-71
2022/11/04 00:08:22;;;;;;;1.83;0.70;;;14.40;76.60;;;;;;5064590;28;20470;-71
2022/11/04 00:10:02;;;;;;;1.00;0.83;;;14.40;76.60;;;;;;5055958;28;20905;-72
2022/11/04 00:12:30;;;;;;;1.70;0.87;;;14.40;76.70;;;;;;5065945;28;20493;-71
2022/11/04 00:17:18;;;;;;;0.90;0.70;;;14.40;76.70;;;;;;5066547;28;20553;-71
2022/11/04 00:17:46;;;;;;;1.10;0.70;;;14.40;76.80;;;;;;5068636;28;20472;-72
2022/11/04 00:28:44;;;;;;;0.80;0.53;;;14.40;76.80;;;;;;5061728;28;21004;-72
2022/11/04 00:33:58;;;;;;;0.90;0.80;;;14.40;76.70;;;;;;5052316;28;20489;-72
2022/11/04 00:36:28;;;;;;;1.07;0.90;;;14.40;76.80;;;;;;5063639;28;20448;-72
2022/11/04 00:38:57;;;;;;;1.40;0.73;;;14.40;76.80;;;;;;5049291;28;20466;-71
2022/11/04 00:41:28;;;;;;;0.90;0.70;;;14.40;76.80;;;;;;5066852;28;20478;-72
2022/11/04 00:43:59;;;;;;;0.90;0.60;;;14.40;76.80;;;;;;5075251;28;20518;-72
2022/11/04 00:46:29;;;;;;;0.83;0.80;;;14.40;76.80;;;;;;5164047;23;20482;-73
2022/11/04 00:48:57;;;;;;;1.07;0.80;;;14.40;76.80;;;;;;5071976;28;21031;-74
2022/11/04 00:51:26;;;;;;;1.20;0.90;;;14.40;76.80;;;;;;5041402;28;21048;-74
2022/11/04 00:53:56;;;;;;;0.80;0.70;;;14.40;76.70;;;;;;5058023;28;20511;-74
2022/11/04 00:56:25;;;;;;;0.83;0.57;;;14.40;76.70;;;;;;5067807;28;21011;-73
2022/11/04 00:58:54;;;;;;;0.67;0.40;;;14.40;76.50;;;;;;5054255;28;20632;-74
2022/11/04 01:01:22;;;;;;;2.10;0.70;;;14.40;76.70;;;;;;5044117;28;20532;-72
2022/11/04 01:03:53;;;;;;;1.03;0.73;;;14.40;76.40;;;;;;5049233;28;21076;-73
2022/11/04 01:06:23;;;;;;;0.80;0.80;;;14.40;76.50;;;;;;5051238;28;20473;-74
2022/11/04 01:08:57;;;;;;;0.80;0.50;;;14.40;76.30;;;;;;5051734;28;20501;-74
2022/11/04 01:11:28;;;;;;;1.07;0.60;;;14.40;76.40;;;;;;5044878;28;21032;-74
2022/11/04 01:13:56;;;;;;;0.80;0.60;;;14.40;76.40;;;;;;5051417;28;20536;-74
2022/11/04 01:16:26;;;;;;;0.87;0.67;;;14.40;76.10;;;;;;5051983;28;20439;-75
2022/11/04 01:18:55;;;;;;;1.03;0.83;;;14.40;76.30;;;;;;5039910;28;20853;-74
2022/11/04 01:21:23;;;;;;;0.90;0.50;;;14.40;76.30;;;;;;5053090;28;20434;-75
2022/11/04 01:23:52;;;;;;;1.00;0.73;;;14.40;76.20;;;;;;5048710;28;20894;-73
2022/11/04 01:26:23;;;;;;;0.93;0.60;;;14.40;75.90;;;;;;5049986;28;20701;-74
2022/11/04 01:28:53;;;;;;;0.77;0.70;;;14.40;76.00;;;;;;5067027;28;20794;-73
2022/11/04 01:31:23;;;;;;;0.70;0.70;;;14.40;76.30;;;;;;5055888;28;20442;-73
2022/11/04 01:33:53;;;;;;;0.80;0.60;;;14.40;76.30;;;;;;5049967;28;20466;-73
2022/11/04 01:36:22;;;;;;;1.00;0.70;;;14.30;76.00;;;;;;5063839;28;20532;-73
2022/11/04 01:38:51;;;;;;;1.77;0.73;;;14.40;76.30;;;;;;5039477;28;20466;-73
2022/11/04 01:41:23;;;;;;;0.83;0.60;;;14.30;75.70;;;;;;5048323;28;20961;-74
2022/11/04 01:43:53;;;;;;;1.17;0.70;;;14.30;75.90;;;;;;5047802;28;20849;-74
2022/11/04 01:46:29;;;;;;;2.13;0.80;;;14.30;76.20;;;;;;5056818;28;20830;-74
2022/11/04 01:49:02;;;;;;;1.03;0.70;;;14.30;76.00;;;;;;5049807;28;20466;-73
2022/11/04 01:51:35;;;;;;;0.90;0.63;;;14.30;76.00;;;;;;5049294;28;20991;-73
2022/11/04 01:54:06;;;;;;;0.80;0.70;;;14.40;76.20;;;;;;5050629;28;20478;-75
2022/11/04 01:56:37;;;;;;;0.70;0.50;;;14.30;75.90;;;;;;5050410;28;20541;-74
2022/11/04 01:59:08;;;;;;;1.17;0.73;;;14.30;76.10;;;;;;5055075;28;20585;-73
2022/11/04 02:01:37;;;;;;;0.90;0.60;;;14.30;76.20;;;;;;5057131;28;20449;-73
2022/11/04 02:06:49;;;;;;;1.23;0.80;;;14.30;75.90;;;;;;5045192;28;20474;-73
2022/11/04 02:09:19;;;;;;;1.57;1.00;;;14.30;76.00;;;;;;5062963;28;20454;-73
2022/11/04 02:14:36;;;;;;;2.83;0.80;;;14.30;76.00;;;;;;5050349;28;20760;-73
2022/11/04 02:17:18;;;;;;;1.10;0.80;;;14.30;76.10;;;;;;5069538;28;20434;-73
2022/11/04 02:20:00;;;;;;;0.97;0.60;;;14.30;76.20;;;;;;5058524;28;20548;-73
2022/11/04 02:22:52;;;;;;;3.47;0.80;;;14.30;76.10;;;;;;5062478;28;20462;-73
2022/11/04 02:25:41;;;;;;;0.93;0.50;;;14.30;76.00;;;;;;5056258;28;20884;-73
2022/11/04 02:28:33;;;;;;;3.40;0.80;;;14.30;76.00;;;;;;5052507;28;20470;-73
2022/11/04 02:31:11;;;;;;;1.10;0.80;;;14.30;76.10;;;;;;5074670;28;21027;-74
2022/11/04 02:33:46;;;;;;;1.80;0.70;;;14.30;76.00;;;;;;5055435;28;20472;-73
2022/11/04 02:36:22;;;;;;;0.83;0.83;;;14.30;76.10;;;;;;5048443;28;20445;-74
2022/11/04 02:38:55;;;;;;;0.80;0.60;;;14.30;76.00;;;;;;5053652;28;20916;-73
2022/11/04 02:41:32;;;;;;;0.60;0.50;;;14.30;76.00;;;;;;5067781;28;20427;-73
2022/11/04 02:44:13;;;;;;;1.63;0.90;;;14.30;76.00;;;;;;5053720;28;20546;-73
2022/11/04 02:46:50;;;;;;;0.60;0.50;;;14.30;76.10;;;;;;5055990;28;20456;-73
2022/11/04 02:49:23;;;;;;;0.77;0.60;;;14.30;76.00;;;;;;5050796;28;20461;-73
2022/11/04 02:51:55;;;;;;;1.23;0.60;;;14.30;75.90;;;;;;5052010;28;20438;-73
2022/11/04 02:54:29;;;;;;;0.77;0.60;;;14.30;75.90;;;;;;5055675;28;20454;-75
2022/11/04 02:57:00;;;;;;;1.37;0.77;;;14.30;75.90;;;;;;5055899;28;20516;-75
2022/11/04 02:59:34;;;;;;;1.80;0.77;;;14.30;75.90;;;;;;5060197;28;20498;-75
2022/11/04 03:02:07;;;;;;;2.03;0.70;;;14.30;75.40;;;;;;5054930;28;20861;-75
2022/11/04 03:04:40;;;;;;;0.60;0.40;;;14.30;75.70;;;;;;5049387;28;20505;-74
2022/11/04 03:07:12;;;;;;;0.97;0.60;;;14.30;75.80;;;;;;5056142;28;20438;-73
2022/11/04 03:09:44;;;;;;;1.87;0.70;;;14.30;75.90;;;;;;5046735;28;20544;-73
2022/11/04 03:12:17;;;;;;;0.93;0.93;;;14.30;75.90;;;;;;5050084;28;20880;-74
2022/11/04 03:14:50;;;;;;;0.70;0.50;;;14.30;75.90;;;;;;5056689;28;20476;-73
2022/11/04 03:17:24;;;;;;;1.10;0.70;;;14.30;75.90;;;;;;5065459;28;20442;-73
2022/11/04 03:19:56;;;;;;;1.53;0.80;;;14.30;75.90;;;;;;5052786;28;20523;-75
2022/11/04 03:22:28;;;;;;;0.80;0.50;;;14.30;75.90;;;;;;5043430;28;21032;-74
2022/11/04 03:24:57;;;;;;;1.27;0.70;;;14.30;75.80;;;;;;5067883;28;20899;-75
2022/11/04 03:27:33;;;;;;;1.03;0.60;;;14.30;75.90;;;;;;5048793;28;20475;-75
2022/11/04 03:30:04;;;;;;;0.90;0.60;;;14.30;76.00;;;;;;5071894;28;20465;-73
2022/11/04 03:32:42;;;;;;;0.50;0.40;;;14.30;76.00;;;;;;5071754;28;20458;-74
2022/11/04 03:35:12;;;;;;;1.33;0.50;;;14.30;75.80;;;;;;5054905;28;20962;-73
2022/11/04 03:37:40;;;;;;;1.23;1.13;;;14.30;75.80;;;;;;5054743;28;20434;-73
2022/11/04 03:40:10;;;;;;;1.47;0.83;;;14.30;75.80;;;;;;5055569;28;20927;-74
2022/11/04 03:42:44;;;;;;;0.70;0.60;;;14.30;75.70;;;;;;5056829;28;20469;-73
2022/11/04 03:45:14;;;;;;;1.03;0.50;;;14.20;75.70;;;;;;5039669;28;20515;-74
2022/11/04 03:47:44;;;;;;;0.80;0.80;;;14.30;75.80;;;;;;5045372;28;20968;-73
2022/11/04 03:50:20;;;;;;;1.67;0.60;;;14.20;75.60;;;;;;5053902;28;20902;-73
2022/11/04 03:52:49;;;;;;;0.83;0.63;;;14.20;75.70;;;;;;5051073;28;20443;-73
2022/11/04 03:55:17;;;;;;;1.00;0.57;;;14.20;75.70;;;;;;5071738;28;20434;-73
2022/11/04 03:57:50;;;;;;;1.60;0.57;;;14.20;75.50;;;;;;5068467;28;20482;-73
2022/11/04 04:00:21;;;;;;;1.33;0.63;;;14.20;75.70;;;;;;5050977;28;20521;-73
2022/11/04 04:02:59;;;;;;;1.77;0.70;;;14.20;75.60;;;;;;5059052;28;20487;-74
2022/11/04 04:05:30;;;;;;;0.70;0.53;;;14.20;75.70;;;;;;5078435;28;20497;-74
2022/11/04 04:08:10;;;;;;;0.60;0.50;;;14.20;75.60;;;;;;5051349;28;20996;-74
2022/11/04 04:10:45;;;;;;;0.60;0.50;;;14.20;75.70;;;;;;5057672;28;20446;-73
2022/11/04 04:13:23;;;;;;;1.30;0.60;;;14.20;75.70;;;;;;5065163;28;20997;-74
2022/11/04 04:15:55;;;;;;;1.53;0.70;;;14.20;75.70;;;;;;5051304;28;20438;-74
2022/11/04 04:18:33;;;;;;;0.73;0.60;;;14.20;75.60;;;;;;5050747;28;20470;-73
2022/11/04 04:21:06;;;;;;;0.83;0.57;;;14.20;75.50;;;;;;5057550;28;20869;-73
2022/11/04 04:29:11;;;;;;;0.87;0.43;;;14.20;75.60;;;;;;5046896;28;20478;-73
2022/11/04 04:31:49;;;;;;;1.30;0.73;;;14.20;75.60;;;;;;5052354;28;20531;-74
2022/11/04 04:34:22;;;;;;;1.30;0.60;;;14.20;75.60;;;;;;5039150;28;20528;-73
2022/11/04 04:36:56;;;;;;;0.87;0.50;;;14.20;75.70;;;;;;5060208;28;20445;-75
2022/11/04 04:45:07;;;;;;;1.63;0.60;;;14.20;75.70;;;;;;5043122;28;20496;-75
2022/11/04 04:47:40;;;;;;;2.07;0.67;;;14.20;75.50;;;;;;5046942;28;20454;-75
2022/11/04 04:50:13;;;;;;;1.03;0.50;;;14.20;75.70;;;;;;5051233;28;20470;-73
2022/11/04 04:52:44;;;;;;;0.70;0.50;;;14.20;75.50;;;;;;5056017;28;20553;-75
2022/11/04 04:55:14;;;;;;;4.17;0.90;;;14.20;75.70;;;;;;5043654;28;20439;-75
2022/11/04 04:57:42;;;;;;;1.17;0.60;;;14.20;75.60;;;;;;5056067;28;20801;-73
2022/11/04 05:00:14;;;;;;;1.50;0.77;;;14.20;75.70;;;;;;5061451;28;20458;-75
2022/11/04 05:02:42;;;;;;;0.80;0.40;;;14.20;75.70;;;;;;5064252;28;20465;-74
2022/11/04 05:05:13;;;;;;;1.27;0.40;;;14.20;75.70;;;;;;5049198;28;20466;-74
2022/11/04 05:07:42;;;;;;;1.60;0.60;;;14.20;75.40;;;;;;5048862;28;20470;-74
2022/11/04 05:10:13;;;;;;;0.97;0.57;;;14.20;75.70;;;;;;5050755;28;20457;-74
2022/11/04 05:15:28;;;;;;;1.00;0.50;;;14.10;76.70;;;;;;5064487;28;20438;-74
2022/11/04 05:17:58;;;;;;;0.60;0.40;;;14.10;75.50;;;;;;5054933;28;20525;-74
2022/11/04 05:20:29;;;;;;;0.70;0.60;;;14.10;75.40;;;;;;5058612;28;20504;-72
2022/11/04 05:22:57;;;;;;;1.10;0.63;;;14.10;75.40;;;;;;5048145;28;20996;-72
2022/11/04 05:25:26;;;;;;;1.40;0.80;;;14.10;75.40;;;;;;5050530;28;20500;-73
2022/11/04 05:27:54;;;;;;;1.50;0.77;;;14.10;75.40;;;;;;5039861;28;20999;-74
2022/11/04 05:30:23;;;;;;;1.00;0.53;;;14.10;75.40;;;;;;5044583;28;20579;-73
2022/11/04 05:32:51;;;;;;;1.57;0.60;;;14.10;75.40;;;;;;5041549;28;20466;-74
2022/11/04 05:35:19;;;;;;;2.07;0.80;;;14.10;75.40;;;;;;5041245;28;20499;-74
2022/11/04 05:37:49;;;;;;;0.70;0.50;;;14.10;76.70;;;;;;5047572;28;20446;-73
2022/11/04 05:40:18;;;;;;;1.77;0.80;;;14.10;75.40;;;;;;5041640;28;20450;-73
2022/11/04 05:42:46;;;;;;;1.00;0.60;;;14.10;75.40;;;;;;5046482;28;20466;-73
2022/11/04 05:45:15;;;;;;;0.73;0.50;;;14.10;75.30;;;;;;5050336;28;20464;-74
2022/11/04 05:47:43;;;;;;;0.87;0.60;;;14.10;75.40;;;;;;5058264;28;20441;-74
2022/11/04 05:50:11;;;;;;;0.80;0.50;;;14.10;75.40;;;;;;5057222;28;20537;-73
2022/11/04 05:52:42;;;;;;;0.53;0.50;;;14.10;75.40;;;;;;5047280;28;20494;-74
2022/11/04 05:55:12;;;;;;;2.10;0.70;;;14.10;75.30;;;;;;5047814;28;21047;-73
2022/11/04 05:57:40;;;;;;;0.97;0.63;;;14.10;75.20;;;;;;5051387;28;21151;-73
2022/11/04 06:00:11;;;;;;;0.67;0.50;;;14.10;75.40;;;;;;5059796;28;21011;-73
2022/11/04 06:02:39;;;;;;;1.73;0.77;;;14.10;75.30;;;;;;5056300;28;20523;-72
2022/11/04 06:05:09;;;;;;;0.87;0.47;;;14.10;75.40;;;;;;5049485;28;20450;-73
2022/11/04 06:07:37;;;;;;;1.20;0.60;;;14.10;75.30;;;;;;5048933;28;20534;-73
2022/11/04 06:10:07;;;;;;;0.80;0.70;;;14.10;75.40;;;;;;5049198;28;20499;-74
2022/11/04 06:12:36;;;;;;;1.03;0.50;;;14.10;75.40;;;;;;5065482;28;20484;-74
2022/11/04 06:15:06;;;;;;;0.70;0.50;;;14.10;75.40;;;;;;5049855;28;20457;-73
2022/11/04 06:17:34;;;;;;;1.17;0.90;;;14.10;75.40;;;;;;5061606;28;21015;-75
2022/11/04 06:20:03;;;;;;;0.90;0.60;;;14.00;75.30;;;;;;5043472;28;20465;-75
2022/11/04 06:22:31;;;;;;;0.70;0.57;;;14.10;75.40;;;;;;5047220;28;20842;-74
2022/11/04 06:24:59;;;;;;;1.40;0.80;;;14.00;75.20;;;;;;5058394;28;20491;-74
2022/11/04 06:27:28;;;;;;;2.13;0.80;;;14.00;75.20;;;;;;5051426;28;20465;-73
2022/11/04 06:29:57;;;;;;;1.10;0.40;;;14.00;75.20;;;;;;5047936;28;20454;-74
2022/11/04 06:32:26;;;;;;;0.60;0.30;;;14.00;75.30;;;;;;5052144;28;20525;-73
2022/11/04 06:34:54;;;;;;;1.07;0.93;;;14.00;75.30;;;;;;5050295;28;20438;-73
2022/11/04 06:37:23;;;;;;;1.67;1.10;;;14.00;75.30;;;;;;5061151;28;20426;-73
2022/11/04 06:39:51;;;;;;;0.50;0.40;;;14.00;75.40;;;;;;5048015;28;20488;-74
2022/11/04 06:42:19;;;;;;;2.00;0.80;;;14.00;75.40;;;;;;5043640;28;20506;-72
2022/11/04 06:44:48;;;;;;;1.27;0.50;;;14.00;75.30;;;;;;5047515;28;20497;-74
2022/11/04 06:47:18;;;;;;;0.60;0.50;;;14.00;75.40;;;;;;5064965;22;20467;-49
2022/11/04 06:49:52;;;;;;;0.87;0.87;;;14.00;75.30;;;;;;5054551;28;20968;-50
2022/11/04 06:52:20;;;;;;;0.63;0.40;;;14.00;75.40;;;;;;5056567;28;20462;-49
2022/11/04 06:54:49;;;;;;;0.90;0.60;;;14.00;75.40;;;;;;5058873;28;20435;-49
2022/11/04 06:57:18;;;;;;;0.80;0.60;;;14.00;75.50;;;;;;5052573;28;20427;-49
2022/11/04 06:59:46;;;;;;;0.70;0.50;;;14.00;75.40;;;;;;5051120;28;20508;-50
2022/11/04 07:02:15;;;;;;;0.70;0.57;;;14.00;75.40;;;;;;5050456;28;20580;-49
2022/11/04 07:04:45;;;;;;;1.00;0.63;;;14.00;75.30;;;;;;5048553;28;20450;-50
2022/11/04 07:07:14;;;;;;;1.10;0.80;;;14.00;75.30;;;;;;5049934;28;20452;-50
2022/11/04 07:09:43;;;;;;;1.30;0.70;;;14.00;75.40;;;;;;5052652;28;20447;-49
2022/11/04 07:12:12;;;;;;;0.60;0.50;;;14.00;75.30;;;;;;5052561;28;20696;-49
2022/11/04 07:14:40;;;;;;;0.80;0.53;;;14.00;75.40;;;;;;5042185;28;20432;-50
2022/11/04 07:17:09;;;;;;;1.83;0.67;;;14.00;75.30;;;;;;5027580;28;20442;-50
2022/11/04 07:19:38;;;;;;;0.80;0.70;;;14.00;75.30;;;;;;5035594;28;20489;-49
2022/11/04 07:22:08;;;;;;;1.63;0.60;;;14.00;75.30;;;;;;5059437;28;20450;-49
2022/11/04 07:24:37;;;;;;;1.10;0.50;;;14.00;75.30;;;;;;5047458;28;20513;-49
2022/11/04 07:27:12;;;;;;;1.10;0.50;;;13.90;75.30;;;;;;5065048;28;20489;-49
2022/11/04 07:36:29;;;;;;;2.53;0.60;;;13.90;74.00;;;;;;5005717;28;20434;-49
2022/11/04 07:39:38;;;;;;;0.90;0.87;;;13.90;75.00;;;;;;5024801;28;20872;-50
2022/11/04 07:42:26;;;;;;;1.40;0.90;;;13.90;75.20;;;;;;5040086;28;20831;-49
2022/11/04 07:45:25;;;;;;;1.00;0.80;;;13.90;74.40;;;;;;5046866;28;21051;-49
2022/11/04 07:48:31;;;;;;;0.90;0.60;;;13.90;75.20;;;;;;5018227;28;20498;-50
2022/11/04 07:51:27;;;;;;;0.60;0.43;;;13.90;75.20;;;;;;5057300;28;20435;-48
2022/11/04 07:54:37;;;;;;;1.60;1.20;;;13.90;76.50;;;;;;5018725;28;20981;-49
2022/11/04 07:57:21;;;;;;;0.70;0.60;;;13.90;75.20;;;;;;5035552;28;20439;-49
2022/11/04 07:59:50;;;;;;;1.13;0.70;;;13.90;75.20;;;;;;5048306;28;20448;-49
2022/11/04 08:02:18;;;;;;;0.90;0.60;;;13.90;75.10;;;;;;5031929;28;21029;-49
2022/11/04 08:04:55;;;;;;;1.00;0.80;;;13.90;75.20;;;;;;5057887;28;20418;-49
2022/11/04 08:07:24;;;;;;;1.37;0.90;;;13.90;75.20;;;;;;5046790;28;20534;-49
2022/11/04 08:09:53;;;;;;;1.50;0.93;;;13.90;75.20;;;;;;5032475;28;20489;-49
2022/11/04 08:12:46;;;;;;;1.13;0.60;;;13.90;75.10;;;;;;5037980;28;20470;-49
2022/11/04 08:15:36;;;;;;;1.50;0.50;;;13.90;75.20;;;;;;5048615;28;20500;-49
2022/11/04 08:18:34;;;;;;;1.43;0.80;;;13.80;75.00;;;;;;5026685;28;20510;-49
2022/11/04 08:21:13;;;;;;;1.30;0.70;;;13.80;75.10;;;;;;5009629;28;20442;-48
2022/11/04 08:23:42;;;;;;;1.73;0.67;;;13.80;75.10;;;;;;5032538;28;20551;-49
2022/11/04 08:26:12;;;;;;;0.63;0.50;;;13.80;75.00;;;;;;5055473;28;20462;-49
2022/11/04 08:28:43;;;;;;;0.90;0.47;;;13.80;75.10;;;;;;5022074;28;20482;-49
2022/11/04 08:31:15;;;;;;;0.80;0.60;;;13.80;75.10;;;;;;5040203;28;20444;-49
2022/11/04 08:33:44;;;;;;;0.60;0.40;;;13.80;75.20;;;;;;5050200;28;20539;-49
2022/11/04 08:36:16;;;;;;;1.00;0.73;;;13.80;75.10;;;;;;5041020;28;20439;-49
2022/11/04 08:38:45;;;;;;;0.70;0.50;;;13.80;75.00;;;;;;5034290;28;20501;-49
2022/11/04 08:41:16;;;;;;;0.90;0.63;;;13.80;75.10;;;;;;5053587;28;20759;-49
2022/11/04 08:43:48;;;;;;;1.70;0.60;;;13.80;75.10;;;;;;5051073;28;21012;-49
2022/11/04 08:46:17;;;;;;;1.00;0.80;;;13.80;75.10;;;;;;5052748;28;20874;-49
2022/11/04 08:48:46;;;;;;;1.03;0.60;;;13.80;75.10;;;;;;5031288;28;20529;-49
2022/11/04 08:51:17;;;;;;;1.27;0.60;;;13.80;75.20;;;;;;5059596;28;20477;-49
2022/11/04 08:53:46;;;;;;;1.23;0.80;;;13.80;75.10;;;;;;5033469;28;20482;-49
2022/11/04 08:56:42;;;;;;;2.17;0.80;;;13.80;75.00;;;;;;5040850;28;20527;-49
2022/11/04 09:02:21;;;;;;;0.83;0.53;;;13.80;75.20;;;;;;5029509;28;20463;-49
2022/11/04 09:05:03;;;;;;;1.90;0.63;;;13.80;75.20;;;;;;5058417;28;20938;-49
2022/11/04 09:07:31;;;;;;;1.53;0.70;;;13.80;75.20;;;;;;5038031;28;20473;-49
2022/11/04 09:10:02;;;;;;;0.87;0.50;;;13.80;75.20;;;;;;5058160;28;20830;-49
2022/11/04 09:12:32;;;;;;;0.80;0.60;;;13.80;75.20;;;;;;5046190;28;20470;-49
2022/11/04 09:15:03;;;;;;;2.50;1.20;;;13.80;75.20;;;;;;5030413;28;20469;-49
2022/11/04 09:17:32;;;;;;;3.60;1.57;;;13.80;75.90;;;;;;5048890;28;20444;-49
2022/11/04 09:20:01;;;;;;;3.63;1.53;;;13.70;75.90;;;;;;5028764;28;20431;-49
2022/11/04 09:22:30;;;;;;;1.67;1.30;;;13.70;75.80;;;;;;5029316;28;20461;-49
2022/11/04 09:24:59;;;;;;;3.77;1.40;;;13.70;75.90;;;;;;5040219;28;21016;-49
2022/11/04 09:27:28;;;;;;;1.53;1.23;;;13.70;75.90;;;;;;5049843;28;20479;-49
2022/11/04 09:29:56;;;;;;;2.13;1.00;;;13.70;75.90;;;;;;5028188;28;20443;-49
2022/11/04 09:32:26;;;;;;;2.13;1.23;;;13.70;75.90;;;;;;5030653;28;20491;-49
2022/11/04 09:34:55;;;;;;;1.40;0.83;;;13.70;75.90;;;;;;5029597;28;20439;-48
2022/11/04 09:37:24;;;;;;;6.93;1.27;;;13.70;76.00;;;;;;5023875;28;20451;-49
2022/11/04 09:39:52;;;;;;;2.10;1.10;;;13.70;75.80;;;;;;5030130;28;20533;-49
2022/11/04 09:42:38;;;;;;;2.53;1.20;;;13.70;75.90;;;;;;5046018;28;20896;-48
2022/11/04 09:45:12;;;;;;;1.50;1.13;;;13.70;76.50;;;;;;5048308;28;20443;-49
2022/11/04 09:47:57;;;;;;;6.57;1.73;;;13.70;76.20;;;;;;5031906;28;20536;-49
2022/11/04 09:50:29;;;;;;;1.77;1.07;;;13.70;76.20;;;;;;5049578;28;20484;-49
2022/11/04 09:53:04;;;;;;;3.70;1.30;;;13.80;77.70;;;;;;5030540;28;20562;-49
2022/11/04 09:55:49;;;;;;;5.30;1.57;;;13.70;76.00;;;;;;5052788;28;20434;-49
2022/11/04 09:58:17;;;;;;;3.83;1.23;;;13.70;76.70;;;;;;5025183;28;20502;-49
2022/11/04 10:00:55;;;;;;;3.13;1.20;;;13.70;76.70;;;;;;5050277;28;20466;-49
2022/11/04 10:03:40;;;;;;;3.50;1.33;;;13.70;76.50;;;;;;5036258;28;20515;-49
2022/11/04 10:06:25;;;;;;;2.77;1.00;;;13.70;76.10;;;;;;5026809;28;20493;-49
2022/11/04 10:09:20;;;;;;;4.17;1.60;;;13.70;76.10;;;;;;5032520;28;20466;-49
2022/11/04 10:12:01;;;;;;;3.90;1.40;;;13.70;76.10;;;;;;5045740;28;20818;-49
2022/11/04 10:14:53;;;;;;;1.57;1.10;;;13.70;76.20;;;;;;5027556;28;20462;-49
2022/11/04 10:17:42;;;;;;;3.77;1.33;;;13.70;76.50;;;;;;5025430;28;20949;-49
2022/11/04 10:20:31;;;;;;;5.60;1.20;;;13.70;76.50;;;;;;5046566;28;20489;-49
2022/11/04 10:23:08;;;;;;;3.93;1.50;;;13.70;76.30;;;;;;5043426;28;20502;-49
2022/11/04 10:25:47;;;;;;;4.00;0.90;;;13.70;76.70;;;;;;5027447;28;20788;-49
2022/11/04 10:28:36;;;;;;;3.33;1.27;;;13.70;76.20;;;;;;5031659;28;20524;-49
2022/11/04 10:31:25;;;;;;;1.90;0.80;;;13.70;76.30;;;;;;5051218;28;20442;-50
2022/11/04 10:34:07;;;;;;;1.73;1.10;;;13.70;76.30;;;;;;5022767;28;20483;-49
2022/11/04 10:36:40;;;;;;;1.27;0.70;;;13.70;76.20;;;;;;5033401;28;20946;-49
2022/11/04 10:39:19;;;;;;;12.43;3.10;;;13.70;76.20;;;;;;5037312;28;20467;-49
2022/11/04 10:41:48;;;;;;;1.73;0.90;;;13.70;76.10;;;;;;5050888;28;20463;-49
2022/11/04 10:44:22;;;;;;;2.87;0.90;;;13.70;76.30;;;;;;5033579;28;20482;-49
2022/11/04 10:46:59;;;;;;;2.90;1.20;;;13.70;76.10;;;;;;5034309;28;20562;-49
2022/11/04 10:49:43;;;;;;;0.93;0.93;;;13.70;76.30;;;;;;5035450;28;20537;-50
2022/11/04 10:52:36;;;;;;;2.00;1.10;;;13.70;76.30;;;;;;5034564;28;20462;-50
2022/11/04 10:55:15;;;;;;;1.33;1.07;;;13.70;76.20;;;;;;5027019;28;20435;-50
2022/11/04 10:57:44;;;;;;;5.70;1.27;;;13.70;76.10;;;;;;5030014;28;20484;-50
2022/11/04 11:00:34;;;;;;;2.33;1.20;;;13.70;76.10;;;;;;5050113;28;20446;-49
2022/11/04 11:03:23;;;;;;;3.20;1.10;;;13.70;76.30;;;;;;5045415;28;21055;-49
2022/11/04 11:05:53;;;;;;;2.13;0.70;;;13.70;76.30;;;;;;5031610;28;20530;-49
2022/11/04 11:08:32;;;;;;;1.30;1.10;;;13.70;76.00;;;;;;5031744;28;20502;-49
2022/11/04 11:11:01;;;;;;;1.67;0.97;;;13.70;76.30;;;;;;5050626;28;20446;-49
2022/11/04 11:13:36;;;;;;;1.50;0.60;;;13.70;76.10;;;;;;5037183;28;20470;-49
2022/11/04 11:16:08;;;;;;;2.30;1.10;;;13.70;76.20;;;;;;5031959;28;20961;-50
2022/11/04 11:18:38;;;;;;;0.90;0.80;;;13.70;76.30;;;;;;5032782;28;20469;-49
2022/11/04 11:21:11;;;;;;;1.37;0.87;;;13.70;76.40;;;;;;5056410;28;20462;-50
2022/11/04 11:23:43;;;;;;;1.43;0.90;;;13.70;76.30;;;;;;5052684;28;20521;-49
2022/11/04 11:26:14;;;;;;;1.53;0.97;;;13.70;76.20;;;;;;5053204;28;20438;-50
2022/11/04 11:28:51;;;;;;;1.93;0.70;;;13.70;76.30;;;;;;5032487;28;20499;-49
2022/11/04 11:31:34;;;;;;;1.63;0.70;;;13.70;76.20;;;;;;5047119;28;20465;-50
2022/11/04 11:34:05;;;;;;;5.10;1.23;;;13.70;76.20;;;;;;5050268;28;20479;-49
2022/11/04 11:36:39;;;;;;;2.20;1.10;;;13.70;76.20;;;;;;5034870;28;20439;-49
2022/11/04 11:39:18;;;;;;;0.77;0.70;;;13.70;76.10;;;;;;5051006;28;20467;-49
2022/11/04 11:41:53;;;;;;;2.07;0.70;;;13.70;76.20;;;;;;5055497;28;20473;-50
2022/11/04 11:44:31;;;;;;;1.20;0.70;;;13.70;76.10;;;;;;5048149;28;20473;-50
2022/11/04 11:47:05;;;;;;;2.50;1.30;;;13.70;76.10;;;;;;5048569;28;21919;-49
2022/11/04 11:49:36;;;;;;;1.47;1.00;;;13.70;76.10;;;;;;5051750;28;20424;-49
2022/11/04 11:52:32;;;;;;;1.90;1.03;;;13.70;76.10;;;;;;5051157;28;20458;-48
2022/11/04 11:55:12;;;;;;;2.67;0.90;;;13.70;76.20;;;;;;5033646;28;20486;-48
2022/11/04 11:57:52;;;;;;;1.50;0.97;;;13.70;76.10;;;;;;5047909;28;20487;-49
2022/11/04 12:00:49;;;;;;;0.80;0.70;;;13.70;76.00;;;;;;5027318;28;20447;-49
2022/11/04 12:03:29;;;;;;;1.13;0.90;;;13.70;76.00;;;;;;5040788;28;20510;-49
2022/11/04 12:06:29;;;;;;;0.73;0.60;;;13.70;76.10;;;;;;5038583;28;20442;-48
2022/11/04 12:09:15;;;;;;;4.23;1.10;;;13.70;75.80;;;;;;5038615;28;20463;-49
2022/11/04 12:12:13;;;;;;;1.90;0.80;;;13.70;76.50;;;;;;5049378;28;20459;-49
2022/11/04 12:14:55;;;;;;;1.80;0.90;;;13.70;76.40;;;;;;5043805;28;20467;-48
2022/11/04 12:17:36;;;;;;;1.60;0.80;;;13.70;76.20;;;;;;5059218;28;20474;-49
2022/11/04 12:20:18;;;;;;;0.60;0.60;;;13.70;76.30;;;;;;5038082;28;20446;-49
2022/11/04 12:22:58;;;;;;;2.87;0.83;;;13.70;76.30;;;;;;5046612;28;20470;-50
2022/11/04 12:25:36;;;;;;;2.53;0.90;;;13.70;76.20;;;;;;5050681;28;20953;-49
2022/11/04 12:28:23;;;;;;;1.80;0.90;;;13.70;77.40;;;;;;5044281;28;20474;-49
2022/11/04 12:31:03;;;;;;;1.60;1.00;;;13.70;76.40;;;;;;5046433;28;20436;-50
2022/11/04 16:22:04;;;;;;;7.30;4.40;;;13.40;90.00;;;;;;5136975;27;21010;-54
2022/11/04 16:24:35;;;;;;;6.50;3.70;;;13.40;90.20;;;;;;5087174;28;20453;-51
2022/11/04 16:27:04;;;;;;;5.43;3.83;;;13.30;89.00;;;;;;5077564;28;20582;-51
2022/11/04 16:29:36;;;;;;;11.13;3.70;;;13.30;89.50;;;;;;5089469;28;20460;-51
2022/11/04 16:32:15;;;;;;;7.03;3.73;;;13.40;90.10;;;;;;5086306;28;20535;-51
2022/11/04 16:34:44;;;;;;;4.30;3.20;;;13.40;90.20;;;;;;5083137;28;20430;-55
2022/11/04 16:37:14;;;;;;;4.83;4.00;;;13.40;90.30;;;;;;5100202;28;20482;-53
2022/11/04 16:39:44;;;;;;;3.13;2.50;;;13.40;90.40;;;;;;5087493;28;20445;-52
2022/11/04 16:42:14;;;;;;;7.17;3.20;;;13.40;90.40;;;;;;5084679;27;20476;-51
2022/11/04 16:44:48;;;;;;;5.00;2.87;;;13.50;90.40;;;;;;5082127;28;20441;-50
2022/11/04 16:47:18;;;;;;;3.40;2.80;;;13.50;90.40;;;;;;5092306;28;20438;-53
2022/11/04 16:49:47;;;;;;;6.57;3.00;;;13.50;90.30;;;;;;5083443;28;20784;-52
2022/11/04 16:52:24;;;;;;;4.60;3.30;;;13.50;90.30;;;;;;5092673;28;20459;-52
2022/11/04 16:54:55;;;;;;;5.50;3.63;;;13.50;90.30;;;;;;5083399;28;20450;-53
2022/11/04 16:57:24;;;;;;;5.80;3.03;;;13.50;90.20;;;;;;5094391;27;21006;-50
2022/11/04 16:59:54;;;;;;;2.83;2.40;;;13.60;90.20;;;;;;5092333;28;20448;-50
2022/11/04 17:02:27;;;;;;;4.20;3.17;;;13.50;90.20;;;;;;5086843;28;21037;-52
2022/11/04 17:04:56;;;;;;;8.67;4.57;;;13.60;90.40;;;;;;5089797;28;20444;-51
2022/11/04 17:07:26;;;;;;;6.05;4.20;;;13.60;89.40;;;;;;5085417;28;20516;-54
2022/11/04 17:10:18;;;;;;;4.23;3.80;;;13.60;90.90;;;;;;5086671;28;20425;-52
2022/11/04 17:12:47;;;;;;;7.70;3.17;;;13.60;90.00;;;;;;5085801;28;20454;-53
2022/11/04 17:15:17;;;;;;;4.80;3.07;;;13.60;90.10;;;;;;5089753;28;21000;-52
2022/11/04 17:17:45;;;;;;;4.40;3.40;;;13.60;90.20;;;;;;5086121;28;20481;-52
2022/11/04 17:20:16;;;;;;;5.17;3.37;;;13.60;90.20;;;;;;5092462;28;20458;-50
2022/11/04 17:22:47;;;;;;;4.30;3.07;;;13.60;90.30;;;;;;5065172;28;20464;-52
2022/11/04 17:25:19;;;;;;;5.47;2.33;;;13.60;90.30;;;;;;5076131;28;20447;-50
2022/11/04 17:27:47;;;;;;;7.60;3.43;;;13.60;90.20;;;;;;5069367;28;20467;-51
2022/11/04 17:30:17;;;;;;;6.93;2.83;;;13.60;90.20;;;;;;5083552;28;20442;-52
2022/11/04 17:32:46;;;;;;;10.27;3.50;;;13.60;90.20;;;;;;5056266;28;20524;-52
2022/11/04 17:35:16;;;;;;;3.50;2.40;;;13.60;90.20;;;;;;5074376;28;20446;-53
2022/11/04 17:37:46;;;;;;;4.50;3.20;;;13.60;90.10;;;;;;5068832;28;20447;-52
2022/11/04 17:40:17;;;;;;;4.30;2.80;;;13.60;90.10;;;;;;5052874;28;20455;-50
2022/11/04 17:45:38;;;;;;;3.53;2.47;;;13.60;90.00;;;;;;5068437;28;20458;-52
2022/11/04 17:48:08;;;;;;;2.50;2.10;;;13.60;90.00;;;;;;5051017;28;20501;-52
2022/11/04 17:50:40;;;;;;;4.20;2.57;;;13.60;90.00;;;;;;5068090;28;20522;-54
2022/11/04 17:53:10;;;;;;;5.80;2.47;;;13.60;90.00;;;;;;5066652;28;20890;-52